• Join FlightAware (Why Join?)
  • Login
  • US Flag 
05:30PM EST


 

Airport Tracker/Info


-or-


 

Live Flight TrackerFlight Track Log ✈ N96FB ✈ 19-Aug-2013 ✈ KLIT - KMEZ

Flight Track Log - Related Links

Times and Time Zones

All times are in EDT time to prevent confusion due to time zone crossing. See the N96FB flight status page for this flight to view local times or setup timezone preferences in your user account.

Time Position Orientation Groundspeed Altitude Reporting Facility
EDT Latitude Longitude Course Direction KTS MPH feet Rate Location/Type
11:08AM 34.7386 -92.2400 336° Northwest 140 161 600  Level Memphis Center
11:09AM 34.7572 -92.2503 336° Northwest 177 204 1,700 2,340 Climbing Memphis Center
11:10AM 34.7792 -92.3167 292° West 209 241 4,400 2,400 Climbing Memphis Center
11:11AM 34.7781 -92.3900 269° West 213 245 6,800 2,220 Climbing Memphis Center
11:12AM 34.7708 -92.4531 262° West 221 254 8,700 1,920 Climbing Memphis Center
11:13AM 34.7631 -92.5311 263° West 239 275 10,500 1,620 Climbing Memphis Center
11:14AM 34.7494 -92.6067 258° West 239 275 12,000 720 Climbing Memphis Center
11:15AM 34.7350 -92.7022 260° West 250 288 12,000  Level Memphis Center
11:16AM 34.7228 -92.8031 262° West 289 333 12,000  Level Memphis Center
11:17AM 34.6956 -92.9033 252° West 308 354 12,000  Level Memphis Center
11:18AM 34.6772 -92.9836 255° West 313 360 12,000  Level Memphis Center
11:19AM 34.6542 -93.0914 255° West 313 360 12,000  Level Memphis Center
11:20AM 34.6331 -93.1917 256° West 313 360 12,000  Level Memphis Center
11:21AM 34.6139 -93.2944 257° West 313 360 12,000  Level Memphis Center
11:22AM 34.5928 -93.3922 255° West 313 360 12,000  Level Memphis Center
11:23AM 34.5717 -93.4922 256° West 313 360 12,000  Level Memphis Center
11:24AM 34.5525 -93.5925 257° West 313 360 12,000 -900 Level Memphis Center
11:25AM 34.5372 -93.6903 259° West 313 360 10,200 -2,040 Descending Memphis Center
11:26AM 34.5261 -93.7906 262° West 313 360 8,000 -1,980 Descending Memphis Center
11:27AM 34.5300 -93.8764 273° West 292 336 6,300 -1,740 Descending Memphis Center